• Join FlightAware (Why Join?)
  • Login
  • US Flag 
09:55AM EDT


 

Airport Tracker/Info


-or-


 

Live Flight TrackerFlight Track Log ✈ SWA706 ✈ 18-05-2013 ✈ KABQ - KPDX

Flight Track Log - Related Links

Times and Time Zones

All times are in EDT time to prevent confusion due to time zone crossing. See the SWA706 flight status page for this flight to view local times or setup timezone preferences in your user account.

Time Position Orientation Groundspeed Altitude Reporting Facility
EDT Latitude Longitude Course Direction KTS MPH feet Rate Location/Type
03:09PM 35.0472 -106.6842 310° West 312 359 7,600  Level Albuquerque Center
03:10PM 35.1192 -106.7178 339° North 286 329 10,800 2,940 Climbing Albuquerque Center
03:11PM 35.1956 -106.7550 338° Northwest 297 342 13,700 3,360 Climbing Albuquerque Center
03:12PM 35.2778 -106.7933 339° North 316 364 17,700 3,120 Climbing Albuquerque Center
03:13PM 35.3725 -106.8425 337° Northwest 320 368 20,200 1,980 Climbing Albuquerque Center
03:14PM 35.5831 -106.8771 354° North  Level FlightAware Approximate
03:14PM 35.4519 -106.8814 338° Northwest 349 402 21,800  Level Albuquerque Center
03:15PM 35.5717 -106.9411 338° Northwest 380 437 24,500 2,400 Climbing Albuquerque Center
03:16PM 35.6739 -106.9944 337° Northwest 395 455 26,800 1,800 Climbing Albuquerque Center
03:17PM 35.7750 -107.0458 338° Northwest 405 466 28,200 1,320 Climbing Albuquerque Center
03:18PM 35.9044 -107.1100 338° Northwest 439 505 29,600 1,260 Climbing Albuquerque Center
03:19PM 36.0156 -107.1686 337° Northwest 458 527 30,900 1,800 Climbing Albuquerque Center
03:20PM 36.1531 -107.2389 338° Northwest 466 536 33,300 1,980 Climbing Albuquerque Center
03:21PM 36.2664 -107.2969 338° Northwest 463 533 35,000 1,680 Climbing Albuquerque Center
03:22PM 36.3972 -107.3642 338° Northwest 457 526 36,800 1,440 Climbing Albuquerque Center
03:23PM 36.5075 -107.4219 337° Northwest 452 520 38,000 540 Climbing Albuquerque Center
03:24PM 36.6339 -107.4858 338° Northwest 443 510 38,000  Level Denver Center
03:26PM 36.7422 -107.5444 337° Northwest 445 512 38,000  Level Denver Center
03:27PM 36.8689 -107.6100 338° Northwest 445 512 38,000  Level Denver Center
03:28PM 36.9789 -107.6678 337° Northwest 447 514 38,000  Level Denver Center
03:29PM 37.1067 -107.7344 337° Northwest 447 514 38,000  Level Denver Center
03:30PM 37.2172 -107.7914 338° Northwest 449 517 38,000  Level Denver Center
03:31PM 37.3275 -107.8503 337° Northwest 450 518 38,000 60 Level Denver Center
03:32PM 37.4569 -107.9203 337° Northwest 452 520 38,200 300 Climbing Denver Center
03:33PM 37.5378 -107.9925 325° Northwest 454 522 38,700 660 Climbing Denver Center
03:34PM 37.6406 -108.1350 312° West 434 499 39,600 600 Climbing Denver Center
03:35PM 37.7189 -108.2425 313° West 434 499 40,000 180 Climbing Denver Center
03:36PM 37.8092 -108.3692 312° West 434 499 40,000  Level Denver Center
03:37PM 37.8864 -108.4781 312° West 435 501 40,000  Level Denver Center
03:38PM 37.9631 -108.5853 312° West 432 497 40,000  Level Denver Center
03:39PM 38.0528 -108.7142 311° West 434 499 40,000  Level Denver Center
03:40PM 38.1214 -108.8039 314° West 426 490 40,000  Level Denver Center
03:41PM 38.2119 -108.9325 312° West 433 498 40,000  Level Denver Center
03:42PM 38.3031 -109.0611 312° West 436 502 40,000  Level Denver Center
03:43PM 38.3794 -109.1692 312° West 430 495 40,000  Level Denver Center
03:44PM 38.4828 -109.3186 311° West 437 503 40,000  Level Denver Center
03:45PM 38.5589 -109.4267 312° West 429 494 40,000  Level Denver Center
03:46PM 38.6478 -109.5544 312° West 431 496 40,000  Level Denver Center
03:47PM 38.7222 -109.6619 312° West 424 488 40,000  Level Denver Center
03:48PM 38.8097 -109.7892 311° West 425 489 40,000  Level Denver Center
03:49PM 38.8858 -109.8994 312° West 429 494 40,000  Level Denver Center
03:50PM 38.9619 -110.0097 312° West 429 494 40,000  Level Denver Center
03:51PM 39.0486 -110.1375 311° West 425 489 40,000  Level Denver Center
03:53PM 39.1489 -110.2842 311° West 424 488 40,000  Level Salt Lake Center
03:53PM 39.2106 -110.3761 311° West 427 491 40,000  Level Denver Center
03:54PM 39.2856 -110.4872 311° West 428 493 40,000  Level Denver Center
03:56PM 39.3864 -110.6353 311° West 428 493 40,000  Level Salt Lake Center
03:57PM 39.4617 -110.7461 311° West 427 491 40,000  Level Salt Lake Center
03:58PM 39.5344 -110.8583 310° West 426 490 40,000  Level Salt Lake Center
03:59PM 39.6206 -110.9883 311° West 425 489 40,000  Level Salt Lake Center
04:00PM 39.6958 -111.0989 312° West 424 488 40,000  Level Salt Lake Center
04:01PM 39.7808 -111.2306 310° West 426 490 40,000  Level Salt Lake Center
04:02PM 39.8533 -111.3422 310° West 422 486 40,000  Level Salt Lake Center
04:03PM 39.9406 -111.4733 311° West 426 490 40,000  Level Salt Lake Center
04:04PM 40.0158 -111.5875 311° West 431 496 40,000  Level Salt Lake Center
04:05PM 40.0903 -111.7008 311° West 429 494 40,000  Level Salt Lake Center
04:06PM 40.1664 -111.8203 310° West 428 493 40,000  Level Salt Lake Center
04:07PM 40.2433 -111.9394 310° West 428 493 40,000  Level Salt Lake Center
04:08PM 40.3197 -112.0586 310° West 427 491 40,000  Level Salt Lake Center
04:09PM 40.4111 -112.2028 310° West 427 491 40,000  Level Salt Lake Center
04:10PM 40.4875 -112.3214 310° West 426 490 40,000  Level Salt Lake Center
04:11PM 40.5644 -112.4400 311° West 425 489 40,000  Level Salt Lake Center
04:12PM 40.6408 -112.5589 310° West 423 487 40,000  Level Salt Lake Center
04:13PM 40.7164 -112.6789 310° West 424 488 40,000  Level Salt Lake Center
04:14PM 40.7917 -112.7983 310° West 424 488 40,000  Level Salt Lake Center
04:15PM 40.8669 -112.9167 310° West 421 484 40,000  Level Salt Lake Center
04:16PM 40.9419 -113.0358 310° West 421 484 40,000  Level Salt Lake Center
04:17PM 41.0167 -113.1544 310° West 420 483 40,000  Level Salt Lake Center
04:18PM 41.0906 -113.2731 310° West 418 481 40,000  Level Salt Lake Center
04:19PM 41.1642 -113.3942 309° West 418 481 40,000  Level Salt Lake Center
04:20PM 41.2542 -113.5386 310° West 424 488 40,000  Level Salt Lake Center
04:21PM 41.3289 -113.6597 309° West 424 488 40,000  Level Salt Lake Center
04:22PM 41.4036 -113.7819 309° West 425 489 40,000  Level Salt Lake Center
04:23PM 41.4789 -113.9028 310° West 425 489 40,000  Level Salt Lake Center
04:24PM 41.5528 -114.0253 309° West 425 489 40,000  Level Salt Lake Center
04:25PM 41.6250 -114.1461 309° West 419 482 40,000  Level Salt Lake Center
04:26PM 41.7011 -114.2669 310° West 422 486 40,000  Level Salt Lake Center
04:27PM 41.7733 -114.3886 309° West 418 481 40,000  Level Salt Lake Center
04:28PM 41.8603 -114.5331 309° West 426 490 40,000  Level Salt Lake Center
04:29PM 41.9289 -114.6486 309° West 416 479 40,000  Level Salt Lake Center
04:30PM 41.9967 -114.7614 309° West 408 470 40,000  Level Salt Lake Center
04:32PM 42.0772 -114.8986 308° West 416 479 40,000  Level Salt Lake Center
04:33PM 42.1442 -115.0136 308° West 414 476 40,000  Level Salt Lake Center
04:34PM 42.2242 -115.1514 308° West 416 479 40,000  Level Salt Lake Center
04:35PM 42.2933 -115.2689 309° West 418 481 40,000  Level Salt Lake Center
04:36PM 42.3617 -115.3864 308° West 415 478 40,000  Level Salt Lake Center
04:37PM 42.4417 -115.5239 308° West 414 476 40,000  Level Salt Lake Center
04:38PM 42.5097 -115.6436 308° West 417 480 40,000  Level Salt Lake Center
04:39PM 42.5897 -115.7808 308° West 415 478 40,000  Level Salt Lake Center
04:40PM 42.6575 -115.9006 308° West 416 479 40,000  Level Salt Lake Center
04:41PM 42.7250 -116.0192 308° West 414 476 40,000  Level Salt Lake Center
04:42PM 42.8039 -116.1592 308° West 416 479 40,000  Level Salt Lake Center
04:43PM 42.8714 -116.2783 308° West 415 478 40,000  Level Salt Lake Center
04:44PM 42.9506 -116.4189 308° West 417 480 40,000  Level Salt Lake Center
04:45PM 43.0183 -116.5397 308° West 418 481 40,000  Level Salt Lake Center
04:46PM 43.0856 -116.6606 307° West 418 481 40,000  Level Salt Lake Center
04:47PM 43.1633 -116.8006 307° West 413 475 40,000  Level Salt Lake Center
04:48PM 43.2308 -116.9228 307° West 417 480 40,000  Level Salt Lake Center
04:49PM 43.3081 -117.0631 307° West 413 475 40,000  Level Salt Lake Center
04:50PM 43.3747 -117.1839 307° West 414 476 40,000  Level Salt Lake Center
04:51PM 43.4408 -117.3064 307° West 415 478 40,000  Level Salt Lake Center
04:52PM 43.5183 -117.4492 307° West 418 481 40,000  Level Salt Lake Center
04:53PM 43.5858 -117.5722 307° West 420 483 40,000  Level Salt Lake Center
04:54PM 43.6517 -117.6953 307° West 417 480 40,000  Level Salt Lake Center
04:55PM 43.7286 -117.8394 306° West 417 480 40,000  Level Salt Lake Center
04:56PM 43.7953 -117.9619 307° West 415 478 40,000  Level Salt Lake Center
04:57PM 43.8714 -118.1061 306° West 416 479 40,000  Level Salt Lake Center
04:58PM 43.9367 -118.2294 306° West 413 475 40,000  Level Salt Lake Center
04:59PM 43.9992 -118.3492 306° West 414 476 40,000  Level Salt Lake Center
05:00PM 44.0661 -118.4769 306° West 411 473 40,000  Level Salt Lake Center
05:01PM 44.1483 -118.6317 307° West 413 475 40,000  Level Salt Lake Center
05:02PM 44.1611 -118.6583 304° West 414 476 40,000  Level Seattle Center
05:03PM 44.2269 -118.7869 306° West 410 472 40,000  Level Seattle Center
05:04PM 44.2942 -118.9169 306° West 413 475 40,000  Level Seattle Center
05:05PM 44.3625 -119.0439 307° West 410 472 40,000  Level Seattle Center
05:06PM 44.4286 -119.1733 306° West 410 472 40,000  Level Seattle Center
05:07PM 44.5075 -119.3283 306° West 408 470 40,000  Level Seattle Center
05:08PM 44.5733 -119.4586 305° West 410 472 40,000  Level Seattle Center
05:09PM 44.6389 -119.5894 305° West 410 472 40,000  Level Seattle Center
05:10PM 44.7047 -119.7203 305° West 410 472 40,000  Level Seattle Center
05:11PM 44.7700 -119.8522 305° West 410 472 40,000  Level Seattle Center
05:12PM 44.8367 -119.9867 305° West 411 473 40,000  Level Seattle Center
05:13PM 44.9036 -120.1236 305° West 414 476 40,000 -900 Level Seattle Center
05:14PM 44.9694 -120.2558 305° West 408 470 38,200 -2,340 Descending Seattle Center
05:15PM 45.0339 -120.3858 305° West 402 463 35,400 -2,940 Descending Seattle Center
05:16PM 45.0978 -120.5192 304° West 409 471 32,300 -2,760 Descending Seattle Center
05:17PM 45.1619 -120.6494 305° West 406 467 29,900 -2,340 Descending Seattle Center
05:18PM 45.2242 -120.7789 304° West 397 457 27,600 -2,340 Descending Seattle Center
05:19PM 45.2867 -120.9067 305° West 395 455 25,300 -2,340 Descending Seattle Center
05:20PM 45.3464 -121.0336 304° West 387 445 23,000 -2,220 Descending Seattle Center
05:21PM 45.4058 -121.1564 305° West 378 435 20,800 -2,220 Descending Seattle Center
05:22PM 45.4383 -121.2894 289° West 361 415 18,600 -2,340 Descending Seattle Center
05:23PM 45.4561 -121.4256 281° West 350 403 16,200 -2,460 Descending Seattle Center
05:23PM 45.4653 -121.4933 281° West 350 403 15,200 -2,100 Descending Seattle Center
05:24PM 45.4722 -121.5594 279° West 344 396 14,100 -2,100 Descending Seattle Center
05:24PM 45.4833 -121.6403 281° West 335 386 12,900 -1,980 Descending Seattle Center
05:25PM 45.4864 -121.6883 275° West 330 380 12,100 -1,920 Descending Seattle Center
05:25PM 45.4989 -121.7758 282° West 310 357 10,800 -1,800 Descending Seattle Center
05:26PM 45.5022 -121.8083 278° West 312 359 10,300 -840 Descending Seattle Center
05:26PM 45.5033 -121.8911 271° West 276 318 10,000 -600 Descending Seattle Center
05:27PM 45.5050 -121.9206 275° West 280 322 9,700 -1,140 Descending Seattle Center
05:27PM 45.5069 -121.9917 272° West 248 285 8,900 -1,320 Descending Seattle Center
05:28PM 45.5050 -122.0208 265° West 250 288 8,400 -1,920 Descending Seattle Center
05:28PM 45.5078 -122.0903 273° West 243 280 7,000 -2,220 Descending Seattle Center
05:29PM 45.5089 -122.1197 273° West 252 290 6,200 -1,500 Descending Seattle Center
05:29PM 45.5081 -122.1858 269° West 245 282 5,500 -900 Descending Seattle Center
05:30PM 45.5119 -122.2153 281° West 248 285 5,300 -1,200 Descending Seattle Center
05:30PM 45.5089 -122.2750 266° West 200 230 4,300 -1,500 Descending Seattle Center
05:31PM 45.5128 -122.2981 284° West 222 255 3,800 -1,020 Descending Seattle Center
05:31PM 45.5103 -122.3453 266° West 208 239 3,400 -1,140 Descending Seattle Center
05:32PM 45.5133 -122.3878 276° West 199 229 2,700 -900 Descending Seattle Center
05:32PM 45.5247 -122.4164 300° West 172 198 2,500 -840 Descending Seattle Center
05:33PM 45.5369 -122.4450 301° West 173 199 1,900 -840 Descending Seattle Center
05:33PM 45.5481 -122.4778 296° West 162 186 1,600 -840 Descending Seattle Center
05:34PM 45.5567 -122.5000 299° West 165 190 1,100 -840 Descending Seattle Center
05:34PM 45.5667 -122.5258 299° West 137 158 800 -840 Descending Seattle Center
05:35PM 45.5761 -122.5467 303° West 154 177 300 -420 Descending Seattle Center
05:36PM 45.5958 -122.5964 300° West 152 175 200 -120 Descending Seattle Center